This is the latest recevied weather packets stored in our database for station/object W3JGB. If no packets are shown the sender has not sent any weather packets the latest 10 day(s).
| Time | Temp. | Humidity | Pressure | Rain* | Wind** | Luminosity | Snow |
|---|---|---|---|---|---|---|---|
| 1777756843 | 10° C | 61% | 1012.3 hPa | 0 mm | - | 109 W/m² | - |
| 1777756538 | 10° C | 60% | 1012.2 hPa | 0 mm | - | 112 W/m² | - |
| 1777756236 | 10° C | 60% | 1012.1 hPa | 0 mm | - | 117 W/m² | - |
| 1777755933 | 10° C | 59% | 1012.2 hPa | 0 mm | - | 122 W/m² | - |
| 1777755630 | 10° C | 58% | 1012.2 hPa | 0 mm | - | 138 W/m² | - |
| 1777755326 | 10.56° C | 59% | 1011.9 hPa | 0 mm | - | 148 W/m² | - |
| 1777755024 | 10.56° C | 56% | 1012 hPa | 0 mm | - | 281 W/m² | - |
| 1777754720 | 10.56° C | 57% | 1012.1 hPa | 0 mm | - | 178 W/m² | - |
| 1777754418 | 11.11° C | 56% | 1012 hPa | 0 mm | - | 186 W/m² | - |
| 1777754115 | 11.11° C | 54% | 1011.9 hPa | 0 mm | - | 206 W/m² | - |
| 1777753812 | 11.11° C | 54% | 1012.1 hPa | 0 mm | - | 208 W/m² | - |
| 1777753508 | 11.11° C | 54% | 1012.4 hPa | 0 mm | - | 239 W/m² | - |
| 1777753207 | 11.11° C | 55% | 1012.1 hPa | 0 mm | - | 371 W/m² | - |
| 1777752902 | 10.56° C | 57% | 1012.1 hPa | 0 mm | - | 205 W/m² | - |
| 1777752599 | 11.67° C | 57% | 1012.4 hPa | 0 mm | - | 196 W/m² | - |
| 1777752295 | 11.11° C | 57% | 1012.3 hPa | 0 mm | - | 223 W/m² | - |
| 1777751992 | 11.11° C | 55% | 1012.4 hPa | 0 mm | - | 212 W/m² | - |
| 1777751690 | 11.67° C | 57% | 1012.3 hPa | 0 mm | - | 295 W/m² | - |
| 1777751386 | 11.11° C | 53% | 1012.4 hPa | 0 mm | - | 766 W/m² | - |
| 1777751083 | 10.56° C | 57% | 1012.8 hPa | 0 mm | - | 231 W/m² | - |
| 1777750778 | 10° C | 61% | 1012.6 hPa | 0 mm | - | 236 W/m² | - |
| 1777750476 | 10.56° C | 57% | 1013.1 hPa | 0 mm | - | 169 W/m² | - |
| 1777750171 | 10.56° C | 57% | 1012.6 hPa | 0 mm | - | 142 W/m² | - |
| 1777749869 | 10.56° C | 56% | 1013 hPa | 0 mm | - | 137 W/m² | - |
| 1777749565 | 10.56° C | 55% | 1012.8 hPa | 0 mm | - | 186 W/m² | - |
* Rain latest hour (hover to see other rain measurements)
** Current wind speed in m/s (hover to see current wind gust speed)